Time;durP1;ratioP1;P1;durP2;ratioP2;P2;SDS_P1;SDS_P2;PMS_P1;PMS_P2;Temp;Humidity;BMP_temperature;BMP_pressure;BME280_temperature;BME280_humidity;BME280_pressure;Samples;Min_cycle;Max_cycle;Signal;HPM_P1;HPM_P2
2021/10/20 00:00:06;;;;;;;;;;;25.90;43.50;;;;;;5095837;28;19908;-78
2021/10/20 00:02:32;;;;;;;;;;;25.90;43.50;;;;;;5112114;28;19916;-78
2021/10/20 00:04:57;;;;;;;;;;;25.90;43.50;;;;;;5095793;28;19912;-81
2021/10/20 00:07:23;;;;;;;;;;;25.90;43.50;;;;;;5096034;28;19919;-79
2021/10/20 00:09:51;;;;;;;;;;;25.90;43.50;;;;;;5094905;28;19908;-82
2021/10/20 00:12:16;;;;;;;;;;;26.00;43.50;;;;;;5095778;28;19909;-78
2021/10/20 00:14:42;;;;;;;;;;;25.90;43.50;;;;;;5095762;28;20251;-79
2021/10/20 00:17:07;;;;;;;;;;;25.90;43.50;;;;;;5094799;28;20356;-78
2021/10/20 00:19:35;;;;;;;;;;;25.90;43.50;;;;;;5095584;28;20308;-78
2021/10/20 00:22:00;;;;;;;;;;;25.90;43.50;;;;;;5094767;28;19908;-80
2021/10/20 00:24:26;;;;;;;;;;;25.90;43.50;;;;;;5095296;28;20347;-80
2021/10/20 00:26:51;;;;;;;;;;;25.90;43.60;;;;;;5094832;28;19923;-81
2021/10/20 00:29:21;;;;;;;;;;;25.90;43.60;;;;;;5095118;28;19908;-79
2021/10/20 00:31:47;;;;;;;;;;;25.90;44.20;;;;;;5094377;28;19916;-81
2021/10/20 00:34:12;;;;;;;;;;;25.90;43.60;;;;;;5095321;28;19938;-78
2021/10/20 00:36:38;;;;;;;;;;;25.90;43.60;;;;;;5095314;28;20333;-80
2021/10/20 00:39:03;;;;;;;;;;;25.90;43.60;;;;;;5095319;28;19916;-79
2021/10/20 00:41:29;;;;;;;;;;;25.90;43.60;;;;;;5095326;28;19908;-78
2021/10/20 00:43:57;;;;;;;;;;;25.90;43.60;;;;;;5095256;28;19912;-80
2021/10/20 00:46:26;;;;;;;;;;;25.90;43.60;;;;;;5095281;28;19908;-79
2021/10/20 00:48:52;;;;;;;;;;;25.90;43.60;;;;;;5095074;28;19919;-80
2021/10/20 00:51:17;;;;;;;;;;;25.90;43.60;;;;;;5095037;28;19923;-80
2021/10/20 00:53:43;;;;;;;;;;;25.80;43.60;;;;;;5094275;28;20348;-78
2021/10/20 00:56:08;;;;;;;;;;;25.90;43.70;;;;;;5094380;28;20240;-80
2021/10/20 00:58:34;;;;;;;;;;;25.80;43.70;;;;;;5095093;28;19908;-80
2021/10/20 01:01:01;;;;;;;;;;;25.90;43.70;;;;;;5128266;27;19908;-78
2021/10/20 01:03:27;;;;;;;;;;;25.90;43.70;;;;;;5095005;28;19912;-79
2021/10/20 01:05:52;;;;;;;;;;;25.90;43.70;;;;;;5094923;28;20252;-80
2021/10/20 01:08:20;;;;;;;;;;;25.90;43.70;;;;;;5094180;28;19962;-79
2021/10/20 01:10:48;;;;;;;;;;;25.90;43.70;;;;;;5128370;28;19927;-81
2021/10/20 01:13:14;;;;;;;;;;;25.90;43.70;;;;;;5094973;28;19994;-80
2021/10/20 01:15:39;;;;;;;;;;;25.80;43.60;;;;;;5095041;28;19952;-79
2021/10/20 01:18:05;;;;;;;;;;;25.90;43.70;;;;;;5094810;28;19919;-82
2021/10/20 01:20:31;;;;;;;;;;;25.80;43.70;;;;;;5128085;28;19926;-80
2021/10/20 01:22:57;;;;;;;;;;;25.80;43.70;;;;;;5094725;28;19930;-79
2021/10/20 01:25:22;;;;;;;;;;;25.80;43.80;;;;;;5094806;28;19913;-81
2021/10/20 01:27:48;;;;;;;;;;;25.80;43.80;;;;;;5094829;28;19932;-80
2021/10/20 01:30:14;;;;;;;;;;;25.80;43.70;;;;;;5127920;28;19919;-80
2021/10/20 01:32:40;;;;;;;;;;;25.80;43.70;;;;;;5111019;28;19912;-79
2021/10/20 01:35:05;;;;;;;;;;;25.80;43.70;;;;;;5093776;28;20356;-81
2021/10/20 01:37:31;;;;;;;;;;;25.80;43.70;;;;;;5094519;28;19920;-80
2021/10/20 01:39:57;;;;;;;;;;;25.80;43.80;;;;;;5130907;27;19908;-82
2021/10/20 01:42:26;;;;;;;;;;;25.80;43.70;;;;;;5098702;28;19952;-78
2021/10/20 01:44:53;;;;;;;;;;;25.80;43.70;;;;;;5098537;28;19916;-79
2021/10/20 01:47:19;;;;;;;;;;;25.80;43.70;;;;;;5097795;28;20217;-79
2021/10/20 01:49:47;;;;;;;;;;;25.70;43.70;;;;;;5098503;28;19934;-80
2021/10/20 01:52:13;;;;;;;;;;;25.80;43.80;;;;;;5098522;28;19999;-80
2021/10/20 01:54:40;;;;;;;;;;;25.80;43.80;;;;;;5098261;28;20009;-79
2021/10/20 01:57:06;;;;;;;;;;;25.80;43.80;;;;;;5098338;28;19909;-80
2021/10/20 01:59:31;;;;;;;;;;;25.70;43.80;;;;;;5098227;28;20348;-79
2021/10/20 02:01:59;;;;;;;;;;;25.80;43.80;;;;;;5098366;28;20060;-80
2021/10/20 02:04:24;;;;;;;;;;;25.70;43.80;;;;;;5098488;28;19919;-79
2021/10/20 02:06:50;;;;;;;;;;;25.80;43.80;;;;;;5101517;28;19908;-81
2021/10/20 02:09:15;;;;;;;;;;;25.70;43.80;;;;;;5118529;28;19908;-78
2021/10/20 02:11:41;;;;;;;;;;;25.80;43.90;;;;;;5098696;28;19952;-79
2021/10/20 02:14:09;;;;;;;;;;;25.80;43.80;;;;;;5114736;28;20312;-82
2021/10/20 02:16:35;;;;;;;;;;;25.70;43.80;;;;;;5098345;28;19908;-78
2021/10/20 02:19:00;;;;;;;;;;;25.70;44.00;;;;;;5098945;28;20355;-79
2021/10/20 02:21:28;;;;;;;;;;;25.70;43.80;;;;;;5132074;27;20241;-81
2021/10/20 02:23:54;;;;;;;;;;;25.70;43.90;;;;;;5114272;28;20275;-81
2021/10/20 02:26:19;;;;;;;;;;;25.70;43.90;;;;;;5098007;28;19926;-81
2021/10/20 02:28:45;;;;;;;;;;;25.70;43.90;;;;;;5097826;28;19908;-80
2021/10/20 02:31:10;;;;;;;;;;;25.70;43.80;;;;;;5097663;28;19973;-81
2021/10/20 02:33:36;;;;;;;;;;;25.70;43.90;;;;;;5096688;28;19970;-81
2021/10/20 02:36:01;;;;;;;;;;;25.70;43.80;;;;;;5097594;28;20004;-79
2021/10/20 02:38:27;;;;;;;;;;;25.80;43.90;;;;;;5097343;28;20032;-79
2021/10/20 02:40:52;;;;;;;;;;;25.70;43.80;;;;;;5097549;28;19926;-80
2021/10/20 02:43:20;;;;;;;;;;;25.70;43.80;;;;;;5130577;27;20306;-79
2021/10/20 02:45:48;;;;;;;;;;;25.70;43.90;;;;;;5097228;28;19987;-79
2021/10/20 02:48:13;;;;;;;;;;;25.70;43.90;;;;;;5097305;28;20011;-80
2021/10/20 02:50:41;;;;;;;;;;;25.70;43.90;;;;;;5095539;28;19943;-79
2021/10/20 02:53:07;;;;;;;;;;;25.70;43.90;;;;;;5097128;28;20006;-79
2021/10/20 02:55:32;;;;;;;;;;;25.70;43.90;;;;;;5130718;27;19951;-82
2021/10/20 02:57:58;;;;;;;;;;;25.70;43.90;;;;;;5096181;28;20010;-81
2021/10/20 03:00:23;;;;;;;;;;;25.70;43.90;;;;;;5097121;28;19909;-80
2021/10/20 03:02:49;;;;;;;;;;;25.70;43.90;;;;;;5097199;28;19908;-80
2021/10/20 03:05:14;;;;;;;;;;;25.70;43.90;;;;;;5096918;28;19912;-81
2021/10/20 03:07:45;;;;;;;;;;;25.70;44.00;;;;;;5096900;28;20333;-80
2021/10/20 03:10:10;;;;;;;;;;;25.70;44.00;;;;;;5097051;28;19955;-82
2021/10/20 03:12:38;;;;;;;;;;;25.70;44.00;;;;;;5112996;28;19908;-80
2021/10/20 03:15:04;;;;;;;;;;;25.70;44.00;;;;;;5096777;28;19923;-85
2021/10/20 03:17:29;;;;;;;;;;;25.70;44.00;;;;;;5095627;28;19908;-81
2021/10/20 03:19:55;;;;;;;;;;;25.70;44.00;;;;;;5095974;28;19916;-81
2021/10/20 03:22:20;;;;;;;;;;;25.70;44.00;;;;;;5129945;27;20234;-82
2021/10/20 03:24:46;;;;;;;;;;;25.70;44.00;;;;;;5096485;28;20370;-79
2021/10/20 03:27:11;;;;;;;;;;;25.70;44.00;;;;;;5095964;28;19908;-80
2021/10/20 03:29:37;;;;;;;;;;;25.70;44.00;;;;;;5096570;28;19908;-81
2021/10/20 03:32:05;;;;;;;;;;;25.60;44.00;;;;;;5095574;28;20340;-83
2021/10/20 03:34:30;;;;;;;;;;;25.60;44.00;;;;;;5096612;28;19912;-81
2021/10/20 03:36:58;;;;;;;;;;;25.60;44.00;;;;;;5096216;28;19920;-81
2021/10/20 03:39:24;;;;;;;;;;;25.60;44.00;;;;;;5096530;28;19912;-82
2021/10/20 03:41:49;;;;;;;;;;;25.60;44.00;;;;;;5095504;28;20245;-82
2021/10/20 03:44:15;;;;;;;;;;;25.60;44.00;;;;;;5129621;27;19981;-80
2021/10/20 03:46:45;;;;;;;;;;;25.60;44.00;;;;;;5096216;28;20402;-79
2021/10/20 03:49:10;;;;;;;;;;;25.60;44.00;;;;;;5096047;28;19908;-81
2021/10/20 03:51:36;;;;;;;;;;;25.60;44.00;;;;;;5095325;28;19953;-78
2021/10/20 03:54:04;;;;;;;;;;;25.70;44.00;;;;;;5095805;28;19923;-78
2021/10/20 03:56:29;;;;;;;;;;;25.60;44.00;;;;;;5095207;28;19908;-79
2021/10/20 03:58:55;;;;;;;;;;;25.60;44.00;;;;;;5095997;28;19915;-80
2021/10/20 04:01:25;;;;;;;;;;;25.60;44.00;;;;;;5095105;28;19908;-80
2021/10/20 04:03:53;;;;;;;;;;;25.60;44.00;;;;;;5095160;28;19935;-82
2021/10/20 04:06:21;;;;;;;;;;;25.60;44.10;;;;;;5096083;28;19915;-81
2021/10/20 04:08:47;;;;;;;;;;;25.60;44.10;;;;;;5095664;28;20329;-83
2021/10/20 04:11:12;;;;;;;;;;;25.60;44.10;;;;;;5128952;27;19908;-80
2021/10/20 04:13:40;;;;;;;;;;;25.60;44.10;;;;;;5095710;28;20282;-81
2021/10/20 04:16:10;;;;;;;;;;;25.60;44.10;;;;;;5095552;28;20341;-80
2021/10/20 04:18:38;;;;;;;;;;;25.60;44.10;;;;;;5095618;28;20359;-80
2021/10/20 04:21:03;;;;;;;;;;;25.60;44.10;;;;;;5095484;28;19923;-80
2021/10/20 04:23:31;;;;;;;;;;;25.50;44.00;;;;;;5095687;28;19912;-79
2021/10/20 04:25:59;;;;;;;;;;;25.50;44.10;;;;;;5111934;28;19930;-80
2021/10/20 04:28:27;;;;;;;;;;;25.50;44.10;;;;;;5094750;28;19939;-80
2021/10/20 04:30:52;;;;;;;;;;;25.60;44.10;;;;;;5095797;28;19907;-80
2021/10/20 04:33:20;;;;;;;;;;;25.50;44.10;;;;;;5095689;28;19908;-80
2021/10/20 04:35:46;;;;;;;;;;;25.50;44.10;;;;;;5094869;28;19920;-80
2021/10/20 04:38:12;;;;;;;;;;;25.50;44.10;;;;;;5094466;28;19920;-82
2021/10/20 04:40:37;;;;;;;;;;;25.50;44.10;;;;;;5094604;28;20236;-83
2021/10/20 04:43:03;;;;;;;;;;;25.60;44.20;;;;;;5095223;28;19938;-84
2021/10/20 04:45:31;;;;;;;;;;;25.50;44.10;;;;;;5111290;28;19908;-80
2021/10/20 04:47:56;;;;;;;;;;;25.50;44.10;;;;;;5095282;28;20262;-80
2021/10/20 04:50:22;;;;;;;;;;;25.50;44.10;;;;;;5094841;28;19908;-80
2021/10/20 04:52:49;;;;;;;;;;;25.50;44.10;;;;;;5094540;28;19908;-80
2021/10/20 04:55:15;;;;;;;;;;;25.50;44.10;;;;;;5128031;27;19948;-82
2021/10/20 04:57:40;;;;;;;;;;;25.50;44.10;;;;;;5095181;28;19958;-82
2021/10/20 05:00:06;;;;;;;;;;;25.50;44.20;;;;;;5094206;28;19908;-79
2021/10/20 05:02:35;;;;;;;;;;;25.50;44.20;;;;;;5128254;28;19908;-81
2021/10/20 05:05:02;;;;;;;;;;;25.50;44.20;;;;;;5094247;28;20007;-81
2021/10/20 05:07:30;;;;;;;;;;;25.50;44.20;;;;;;5094462;28;19908;-83
2021/10/20 05:09:55;;;;;;;;;;;25.50;44.20;;;;;;5094977;28;19908;-80
2021/10/20 05:12:22;;;;;;;;;;;25.50;44.20;;;;;;5094040;28;20286;-81
2021/10/20 05:14:47;;;;;;;;;;;25.50;44.10;;;;;;5098070;28;20328;-81
2021/10/20 05:17:13;;;;;;;;;;;25.50;44.10;;;;;;5132448;27;19912;-80
2021/10/20 05:19:38;;;;;;;;;;;25.50;44.10;;;;;;5099067;28;20346;-81
2021/10/20 05:22:06;;;;;;;;;;;25.50;44.10;;;;;;5099002;28;20340;-79
2021/10/20 05:24:34;;;;;;;;;;;25.50;44.20;;;;;;5099429;28;20046;-81
2021/10/20 05:27:02;;;;;;;;;;;25.50;44.10;;;;;;5099519;28;19915;-81
2021/10/20 05:29:32;;;;;;;;;;;25.50;44.10;;;;;;5098993;28;19908;-81
2021/10/20 05:31:58;;;;;;;;;;;25.50;44.20;;;;;;5098986;28;19908;-80
2021/10/20 05:34:24;;;;;;;;;;;25.50;44.20;;;;;;5098995;28;20002;-80
2021/10/20 05:36:49;;;;;;;;;;;25.50;44.30;;;;;;5097774;28;20022;-77
2021/10/20 05:39:15;;;;;;;;;;;25.40;37.90;;;;;;5098623;28;20328;-78
2021/10/20 05:41:42;;;;;;;;;;;24.80;37.00;;;;;;5132116;27;20333;-80
2021/10/20 05:44:13;;;;;;;;;;;24.00;39.90;;;;;;5084626;28;20381;-81
2021/10/20 05:46:41;;;;;;;;;;;24.20;41.50;;;;;;5081604;28;19927;-83
2021/10/20 05:49:06;;;;;;;;;;;24.50;41.60;;;;;;5098383;28;20351;-82
2021/10/20 05:51:37;;;;;;;;;;;24.80;41.20;;;;;;5098435;28;19908;-78
2021/10/20 05:54:02;;;;;;;;;;;25.00;41.00;;;;;;5098009;28;20281;-80
2021/10/20 05:56:28;;;;;;;;;;;25.10;40.90;;;;;;5098962;28;19915;-80
2021/10/20 05:58:53;;;;;;;;;;;25.30;40.90;;;;;;5098044;28;20037;-80
2021/10/20 06:01:23;;;;;;;;;;;25.40;40.90;;;;;;5112523;27;20387;-80
2021/10/20 06:03:51;;;;;;;;;;;25.40;41.00;;;;;;5078076;28;19963;-80
2021/10/20 06:06:17;;;;;;;;;;;25.50;41.00;;;;;;5077315;28;20286;-82
2021/10/20 06:08:45;;;;;;;;;;;25.50;41.10;;;;;;5078067;28;19919;-80
2021/10/20 06:11:10;;;;;;;;;;;25.50;41.10;;;;;;5077114;28;20265;-80
2021/10/20 06:13:36;;;;;;;;;;;25.60;41.20;;;;;;5094315;28;19909;-80
2021/10/20 06:16:04;;;;;;;;;;;25.60;41.20;;;;;;5112991;28;19986;-79
2021/10/20 06:18:31;;;;;;;;;;;25.60;41.40;;;;;;5133632;27;19908;-81
2021/10/20 06:20:58;;;;;;;;;;;25.60;41.50;;;;;;5100120;28;19975;-80
2021/10/20 06:23:23;;;;;;;;;;;25.60;41.80;;;;;;5133691;27;19916;-78
2021/10/20 06:25:51;;;;;;;;;;;25.70;41.80;;;;;;5099494;28;20011;-79
2021/10/20 06:28:16;;;;;;;;;;;25.70;42.10;;;;;;5100283;28;19919;-79
2021/10/20 06:30:53;;;;;;;;;;;25.70;42.20;;;;;;5101182;28;20287;-79
2021/10/20 06:33:18;;;;;;;;;;;25.70;42.60;;;;;;5101831;28;19970;-78
2021/10/20 06:35:44;;;;;;;;;;;25.70;44.80;;;;;;5102195;28;20310;-82
2021/10/20 06:38:09;;;;;;;;;;;25.70;45.80;;;;;;5116296;28;19986;-84
2021/10/20 06:40:35;;;;;;;;;;;25.80;46.30;;;;;;5114290;28;19915;-83
2021/10/20 06:43:00;;;;;;;;;;;25.80;46.60;;;;;;5131180;27;19917;-82
2021/10/20 06:45:26;;;;;;;;;;;25.90;47.20;;;;;;5131505;27;20376;-85
2021/10/20 06:47:51;;;;;;;;;;;25.90;47.20;;;;;;5131047;27;20264;-83
2021/10/20 06:50:17;;;;;;;;;;;26.00;47.20;;;;;;5130621;27;20006;-80
2021/10/20 06:52:45;;;;;;;;;;;26.10;47.40;;;;;;5110570;28;19935;-82
2021/10/20 06:55:11;;;;;;;;;;;26.10;47.20;;;;;;5093214;28;20015;-82
2021/10/20 06:57:36;;;;;;;;;;;26.10;47.10;;;;;;5110723;28;19956;-82
2021/10/20 07:00:03;;;;;;;;;;;26.20;47.20;;;;;;5093460;28;19908;-81
2021/10/20 07:02:28;;;;;;;;;;;26.20;47.10;;;;;;5110399;28;19919;-80
2021/10/20 07:04:54;;;;;;;;;;;26.30;47.20;;;;;;5077268;28;19912;-84
2021/10/20 07:07:24;;;;;;;;;;;26.30;47.00;;;;;;5110311;28;19909;-80
2021/10/20 07:09:50;;;;;;;;;;;26.30;47.10;;;;;;5109908;28;19909;-79
2021/10/20 07:12:15;;;;;;;;;;;26.40;47.10;;;;;;5093790;28;19939;-82
2021/10/20 07:14:41;;;;;;;;;;;26.40;46.90;;;;;;5077521;28;19952;-85
2021/10/20 07:17:09;;;;;;;;;;;26.40;46.60;;;;;;5093312;28;20257;-80
2021/10/20 07:19:36;;;;;;;;;;;26.50;46.70;;;;;;5076956;28;19923;-79
2021/10/20 07:22:04;;;;;;;;;;;26.60;46.50;;;;;;5109604;28;20249;-82
2021/10/20 07:24:30;;;;;;;;;;;26.60;46.30;;;;;;5109924;28;19913;-81
2021/10/20 07:26:55;;;;;;;;;;;26.70;46.20;;;;;;5109734;28;19973;-80
2021/10/20 07:29:21;;;;;;;;;;;26.70;46.00;;;;;;5093232;28;19999;-80
2021/10/20 07:31:48;;;;;;;;;;;26.70;46.30;;;;;;5075976;28;19909;-81
2021/10/20 07:34:14;;;;;;;;;;;26.90;45.70;;;;;;5092846;28;20015;-80
2021/10/20 07:36:41;;;;;;;;;;;26.90;45.70;;;;;;5092323;28;19963;-81
2021/10/20 07:39:07;;;;;;;;;;;26.90;45.70;;;;;;5076950;28;19963;-81
2021/10/20 07:41:33;;;;;;;;;;;26.90;45.70;;;;;;5109308;28;19908;-80
2021/10/20 07:43:58;;;;;;;;;;;27.00;45.50;;;;;;5075567;28;20015;-81
2021/10/20 07:46:26;;;;;;;;;;;27.00;45.30;;;;;;5109442;28;19920;-79
2021/10/20 07:48:52;;;;;;;;;;;27.00;45.30;;;;;;5076123;28;19908;-81
2021/10/20 07:51:17;;;;;;;;;;;27.00;45.40;;;;;;5085497;28;20312;-80
2021/10/20 07:53:43;;;;;;;;;;;27.10;45.20;;;;;;5129533;27;20373;-78
2021/10/20 07:56:08;;;;;;;;;;;27.10;45.30;;;;;;5096444;28;19937;-79
2021/10/20 07:58:35;;;;;;;;;;;27.10;45.20;;;;;;5112641;28;19908;-81
2021/10/20 08:01:01;;;;;;;;;;;27.10;45.10;;;;;;5096638;28;20072;-82
2021/10/20 08:03:27;;;;;;;;;;;27.10;45.10;;;;;;5112741;28;20530;-82
2021/10/20 08:05:55;;;;;;;;;;;27.10;45.10;;;;;;5129335;27;19927;-87
2021/10/20 08:08:21;;;;;;;;;;;27.10;45.10;;;;;;5128803;27;19919;-82
2021/10/20 08:10:46;;;;;;;;;;;27.10;45.10;;;;;;5096661;28;19909;-81
2021/10/20 08:13:12;;;;;;;;;;;27.10;45.10;;;;;;5129434;27;19912;-83
2021/10/20 08:15:42;;;;;;;;;;;27.10;45.10;;;;;;5129702;27;19908;-81
2021/10/20 08:18:10;;;;;;;;;;;27.20;45.20;;;;;;5128250;27;20256;-83
2021/10/20 08:20:36;;;;;;;;;;;27.20;45.00;;;;;;5096446;28;20390;-80
2021/10/20 08:23:02;;;;;;;;;;;27.20;45.00;;;;;;5112097;28;19908;-81
2021/10/20 08:25:31;;;;;;;;;;;27.20;45.20;;;;;;5129766;27;19938;-80
2021/10/20 08:27:56;;;;;;;;;;;27.20;45.10;;;;;;5129229;27;19908;-79
2021/10/20 08:30:24;;;;;;;;;;;27.20;45.00;;;;;;5096298;28;19962;-80
2021/10/20 08:32:51;;;;;;;;;;;27.20;45.10;;;;;;5096400;28;19908;-82
2021/10/20 08:35:19;;;;;;;;;;;27.20;45.20;;;;;;5111965;28;19916;-78
2021/10/20 08:37:45;;;;;;;;;;;27.20;45.10;;;;;;5128900;27;19927;-82
2021/10/20 08:40:12;;;;;;;;;;;27.20;45.20;;;;;;5111829;28;19908;-79
2021/10/20 08:42:38;;;;;;;;;;;27.20;45.20;;;;;;5094976;28;19973;-81
2021/10/20 08:45:04;;;;;;;;;;;27.10;45.10;;;;;;5094937;28;20495;-80
2021/10/20 08:47:29;;;;;;;;;;;27.10;45.20;;;;;;5095280;28;19908;-77
2021/10/20 08:49:57;;;;;;;;;;;27.20;45.00;;;;;;5094701;28;19916;-78
2021/10/20 08:52:22;;;;;;;;;;;27.20;45.00;;;;;;5111323;28;19966;-77
2021/10/20 08:54:48;;;;;;;;;;;27.20;45.10;;;;;;5128518;27;20316;-74
2021/10/20 08:57:13;;;;;;;;;;;27.20;44.90;;;;;;5095390;28;19912;-75
2021/10/20 08:59:39;;;;;;;;;;;27.20;44.90;;;;;;5095134;28;20407;-76
2021/10/20 09:02:04;;;;;;;;;;;27.20;44.80;;;;;;5094094;28;20000;-74
2021/10/20 09:04:30;;;;;;;;;;;27.20;44.80;;;;;;5095008;28;20018;-75
2021/10/20 09:06:59;;;;;;;;;;;27.30;44.80;;;;;;5093952;28;20038;-81
2021/10/20 09:09:33;;;;;;;;;;;27.30;44.80;;;;;;5127704;28;19908;-76
2021/10/20 09:12:01;;;;;;;;;;;27.30;44.90;;;;;;5094849;28;20367;-78
2021/10/20 09:14:29;;;;;;;;;;;27.30;44.80;;;;;;5094013;28;20410;-78
2021/10/20 09:16:54;;;;;;;;;;;27.30;44.80;;;;;;5094852;28;19908;-79
2021/10/20 09:19:31;;;;;;;;;;;27.30;44.70;;;;;;5094221;28;20640;-80
2021/10/20 09:21:57;;;;;;;;;;;27.30;44.60;;;;;;5094311;28;19915;-79
2021/10/20 09:24:25;;;;;;;;;;;27.40;44.60;;;;;;5094073;28;19912;-77
2021/10/20 09:26:51;;;;;;;;;;;27.30;44.60;;;;;;5093927;28;19908;-78
2021/10/20 09:29:21;;;;;;;;;;;27.30;44.60;;;;;;5128045;28;19908;-77
2021/10/20 09:31:46;;;;;;;;;;;27.30;44.50;;;;;;5094837;28;20257;-77
2021/10/20 09:34:12;;;;;;;;;;;27.40;44.50;;;;;;5111363;28;19908;-75
2021/10/20 09:36:38;;;;;;;;;;;27.40;44.40;;;;;;5095051;28;19972;-78
2021/10/20 09:39:03;;;;;;;;;;;27.40;44.50;;;;;;5095015;28;19908;-75
2021/10/20 09:41:29;;;;;;;;;;;27.40;44.50;;;;;;5094130;28;19908;-77
2021/10/20 09:43:57;;;;;;;;;;;27.40;44.50;;;;;;5093923;28;19931;-77
2021/10/20 09:46:49;;;;;;;;;;;27.40;44.30;;;;;;5094615;28;19919;-75
2021/10/20 09:49:21;;;;;;;;;;;27.40;44.30;;;;;;5093318;28;19908;-76
2021/10/20 09:51:47;;;;;;;;;;;27.40;44.30;;;;;;5081495;28;19908;-80
2021/10/20 09:54:23;;;;;;;;;;;27.40;44.30;;;;;;5073399;28;19932;-75
2021/10/20 09:56:55;;;;;;;;;;;27.40;44.30;;;;;;5074275;28;19909;-76
2021/10/20 09:59:20;;;;;;;;;;;27.50;44.40;;;;;;5107401;28;19909;-77
2021/10/20 10:01:46;;;;;;;;;;;27.40;44.20;;;;;;5110978;28;20361;-79
2021/10/20 10:04:14;;;;;;;;;;;27.40;44.20;;;;;;5093780;28;19912;-78
2021/10/20 10:06:40;;;;;;;;;;;27.40;44.20;;;;;;5077961;28;20046;-79
2021/10/20 10:09:11;;;;;;;;;;;27.40;44.80;;;;;;5078114;28;19909;-77
2021/10/20 10:11:40;;;;;;;;;;;27.40;44.20;;;;;;5080691;28;19967;-76
2021/10/20 10:14:06;;;;;;;;;;;27.50;44.20;;;;;;5080597;28;20423;-77
2021/10/20 10:16:32;;;;;;;;;;;27.40;44.20;;;;;;5112439;28;19908;-78
2021/10/20 10:19:01;;;;;;;;;;;27.40;44.20;;;;;;5095160;28;20006;-77
2021/10/20 10:21:30;;;;;;;;;;;27.50;44.20;;;;;;5079383;28;19927;-78
2021/10/20 10:23:56;;;;;;;;;;;27.40;44.20;;;;;;5080314;28;20246;-76
2021/10/20 10:26:24;;;;;;;;;;;27.40;44.20;;;;;;5078825;28;19992;-75
2021/10/20 10:29:06;;;;;;;;;;;27.40;44.20;;;;;;5078520;28;19919;-79
2021/10/20 10:31:38;;;;;;;;;;;27.40;44.20;;;;;;5077398;28;19926;-78
2021/10/20 10:34:03;;;;;;;;;;;27.40;44.20;;;;;;5109453;28;20408;-76
2021/10/20 10:36:30;;;;;;;;;;;27.40;44.20;;;;;;5076201;28;19954;-77
2021/10/20 10:38:58;;;;;;;;;;;27.40;44.20;;;;;;5076309;28;19913;-77
2021/10/20 10:41:27;;;;;;;;;;;27.40;44.20;;;;;;5077148;28;19994;-78
2021/10/20 10:44:07;;;;;;;;;;;27.40;44.20;;;;;;5077259;28;20257;-78
2021/10/20 10:46:32;;;;;;;;;;;27.40;44.20;;;;;;5077056;28;19915;-79
2021/10/20 10:48:58;;;;;;;;;;;27.30;44.20;;;;;;5093307;28;20010;-77
2021/10/20 10:51:23;;;;;;;;;;;27.30;44.30;;;;;;5110298;28;19912;-77
2021/10/20 10:53:55;;;;;;;;;;;27.30;44.20;;;;;;5110119;28;19908;-76
2021/10/20 10:56:21;;;;;;;;;;;27.30;44.30;;;;;;5077084;28;19916;-79
2021/10/20 10:58:52;;;;;;;;;;;27.30;44.30;;;;;;5109842;28;20349;-78
2021/10/20 11:01:38;;;;;;;;;;;27.30;44.30;;;;;;5076948;28;20011;-79
2021/10/20 11:04:19;;;;;;;;;;;27.40;44.30;;;;;;5075849;28;19912;-77
2021/10/20 11:06:49;;;;;;;;;;;27.30;44.30;;;;;;5077159;28;19913;-78
2021/10/20 11:09:18;;;;;;;;;;;27.40;44.40;;;;;;5109417;28;19912;-77
2021/10/20 11:11:51;;;;;;;;;;;27.40;44.40;;;;;;5091392;28;19920;-77
2021/10/20 11:14:19;;;;;;;;;;;27.40;44.40;;;;;;5076600;28;20325;-78
2021/10/20 11:16:50;;;;;;;;;;;27.40;44.40;;;;;;5109647;28;20054;-76
2021/10/20 11:19:22;;;;;;;;;;;27.40;44.40;;;;;;5109512;28;19919;-77
2021/10/20 11:21:47;;;;;;;;;;;27.40;44.30;;;;;;5109558;28;20375;-76
2021/10/20 11:24:13;;;;;;;;;;;27.40;44.40;;;;;;5075597;28;19912;-76
2021/10/20 11:26:39;;;;;;;;;;;27.40;44.30;;;;;;5109634;28;20352;-78
2021/10/20 11:29:05;;;;;;;;;;;27.40;44.40;;;;;;5109338;28;19909;-77
2021/10/20 11:31:33;;;;;;;;;;;27.40;44.20;;;;;;5076772;28;19923;-77
2021/10/20 11:34:19;;;;;;;;;;;27.40;44.30;;;;;;5109524;28;20427;-79
2021/10/20 11:36:44;;;;;;;;;;;27.40;44.40;;;;;;5075853;28;19932;-77
2021/10/20 11:39:10;;;;;;;;;;;27.40;44.40;;;;;;5076631;28;19912;-79
2021/10/20 11:41:37;;;;;;;;;;;27.40;44.30;;;;;;5076648;28;19909;-75
2021/10/20 11:44:02;;;;;;;;;;;27.40;44.30;;;;;;5109045;28;20356;-79
2021/10/20 11:46:31;;;;;;;;;;;27.40;44.30;;;;;;5075976;28;19995;-78
2021/10/20 11:48:58;;;;;;;;;;;27.40;44.30;;;;;;5108854;28;19920;-78
2021/10/20 11:51:23;;;;;;;;;;;27.40;44.50;;;;;;5101382;28;19908;-76
2021/10/20 11:53:51;;;;;;;;;;;27.40;44.30;;;;;;5129507;27;20295;-79
2021/10/20 11:56:17;;;;;;;;;;;27.40;44.40;;;;;;5096216;28;19965;-75
2021/10/20 11:58:46;;;;;;;;;;;27.40;44.30;;;;;;5096112;28;20002;-75
2021/10/20 12:01:12;;;;;;;;;;;27.40;44.30;;;;;;5096169;28;19908;-76
2021/10/20 12:03:39;;;;;;;;;;;27.40;44.40;;;;;;5096060;28;19912;-75
2021/10/20 12:06:07;;;;;;;;;;;27.50;44.30;;;;;;5112064;28;19912;-75
2021/10/20 12:08:35;;;;;;;;;;;27.50;44.20;;;;;;5129145;27;19912;-77
2021/10/20 12:11:01;;;;;;;;;;;27.50;44.30;;;;;;5129235;27;19982;-77
2021/10/20 12:13:27;;;;;;;;;;;27.50;44.20;;;;;;5129076;27;19911;-74
2021/10/20 12:15:52;;;;;;;;;;;27.50;44.20;;;;;;5094788;28;19912;-78
2021/10/20 12:18:18;;;;;;;;;;;27.50;44.40;;;;;;5095720;28;19908;-78
2021/10/20 12:20:50;;;;;;;;;;;27.20;38.20;;;;;;5095738;28;19912;-79
2021/10/20 12:23:16;;;;;;;;;;;26.20;36.40;;;;;;5095508;28;19915;-79
2021/10/20 12:25:44;;;;;;;;;;;25.20;38.50;;;;;;5095925;28;19945;-80
2021/10/20 12:28:14;;;;;;;;;;;25.30;41.00;;;;;;5095905;28;20002;-82
2021/10/20 12:30:41;;;;;;;;;;;25.80;41.20;;;;;;5095715;28;19977;-79
2021/10/20 12:33:12;;;;;;;;;;;26.20;41.00;;;;;;5112524;28;20302;-81
2021/10/20 12:35:50;;;;;;;;;;;26.50;40.50;;;;;;5128152;27;19935;-82
2021/10/20 12:38:16;;;;;;;;;;;26.60;39.90;;;;;;5111461;28;19916;-82
2021/10/20 12:40:45;;;;;;;;;;;26.70;40.00;;;;;;5111418;28;19934;-83
2021/10/20 12:43:16;;;;;;;;;;;26.90;39.40;;;;;;5129100;27;19919;-80
2021/10/20 12:45:42;;;;;;;;;;;26.90;38.60;;;;;;5095983;28;19916;-82
2021/10/20 12:48:08;;;;;;;;;;;26.90;37.70;;;;;;5111899;28;19919;-82
2021/10/20 12:50:37;;;;;;;;;;;27.00;38.40;;;;;;5093121;28;19908;-83
2021/10/20 12:53:06;;;;;;;;;;;26.90;36.90;;;;;;5107879;28;19956;-81
2021/10/20 12:55:34;;;;;;;;;;;26.90;38.90;;;;;;5075030;28;19912;-81
2021/10/20 12:58:00;;;;;;;;;;;26.90;37.60;;;;;;5091370;28;19913;-84
2021/10/20 13:00:26;;;;;;;;;;;26.80;38.60;;;;;;5075051;28;19909;-82
2021/10/20 13:02:55;;;;;;;;;;;26.70;36.70;;;;;;5091004;28;20503;-82
2021/10/20 13:05:20;;;;;;;;;;;26.80;38.20;;;;;;5074547;28;19913;-82
2021/10/20 13:07:46;;;;;;;;;;;26.80;38.30;;;;;;5075250;28;19920;-81
2021/10/20 13:10:13;;;;;;;;;;;26.80;38.00;;;;;;5108217;28;19909;-83
2021/10/20 13:12:40;;;;;;;;;;;26.80;37.50;;;;;;5075325;28;19908;-81
2021/10/20 13:15:08;;;;;;;;;;;26.80;38.00;;;;;;5107847;28;19927;-80
2021/10/20 13:17:38;;;;;;;;;;;26.80;38.10;;;;;;5074183;28;20462;-82
2021/10/20 13:20:04;;;;;;;;;;;26.80;37.70;;;;;;5074832;28;19923;-79
2021/10/20 13:22:30;;;;;;;;;;;26.90;38.30;;;;;;5074133;28;19919;-83
2021/10/20 13:24:58;;;;;;;;;;;26.80;37.30;;;;;;5091055;28;19913;-83
2021/10/20 13:27:24;;;;;;;;;;;26.80;37.70;;;;;;5090352;28;19958;-81
2021/10/20 13:29:49;;;;;;;;;;;26.70;37.90;;;;;;5091260;28;19916;-81
2021/10/20 13:32:17;;;;;;;;;;;26.70;38.00;;;;;;5074721;28;19908;-83
2021/10/20 13:34:42;;;;;;;;;;;26.70;38.70;;;;;;5076005;28;19908;-82
2021/10/20 13:37:08;;;;;;;;;;;26.70;38.70;;;;;;5078675;28;19923;-81
2021/10/20 13:39:34;;;;;;;;;;;26.70;38.70;;;;;;5078963;28;19912;-82
2021/10/20 13:42:00;;;;;;;;;;;26.80;37.60;;;;;;5077854;28;19909;-80
2021/10/20 13:44:26;;;;;;;;;;;26.70;37.40;;;;;;5078892;28;19917;-82
2021/10/20 13:46:54;;;;;;;;;;;26.70;38.50;;;;;;5095076;28;20452;-84
2021/10/20 13:49:22;;;;;;;;;;;26.80;37.70;;;;;;5114994;28;19909;-81
2021/10/20 13:51:47;;;;;;;;;;;26.70;37.70;;;;;;5120190;28;19934;-79
2021/10/20 13:54:19;;;;;;;;;;;26.70;37.90;;;;;;5101140;28;19912;-79
2021/10/20 13:56:50;;;;;;;;;;;26.70;38.20;;;;;;5084587;28;19951;-80
2021/10/20 13:59:17;;;;;;;;;;;26.70;38.40;;;;;;5106491;28;19919;-80
2021/10/20 14:01:45;;;;;;;;;;;26.70;38.20;;;;;;5121807;28;20227;-78
2021/10/20 14:04:15;;;;;;;;;;;26.70;38.70;;;;;;5117410;28;19912;-80
2021/10/20 14:06:41;;;;;;;;;;;26.70;38.60;;;;;;5080601;28;19909;-75
2021/10/20 14:09:06;;;;;;;;;;;26.70;38.90;;;;;;5111121;28;19920;-78
2021/10/20 14:11:32;;;;;;;;;;;26.80;38.70;;;;;;5076821;28;20003;-76
2021/10/20 14:13:57;;;;;;;;;;;26.80;39.00;;;;;;5077840;28;19909;-78